createdAt,value
2016-06-06T13:04:55.956Z,35
2016-06-06T13:05:55.506Z,35
2016-06-06T13:06:58.493Z,35
2016-06-06T13:07:58.979Z,35
2016-06-06T13:08:55.921Z,35
2016-06-06T13:09:56.454Z,35
2016-06-06T13:11:01.363Z,35
2016-06-06T13:11:55.506Z,35
2016-06-06T13:12:56.478Z,35
2016-06-06T13:14:01.168Z,35
2016-06-06T13:14:57.421Z,35
2016-06-06T13:15:56.157Z,40
2016-06-06T13:17:02.020Z,40
2016-06-06T13:17:58.037Z,45
2016-06-06T13:18:57.853Z,45
2016-06-06T13:19:58.934Z,45
2016-06-06T13:20:56.562Z,40
2016-06-06T13:21:55.642Z,35
2016-06-06T13:22:58.208Z,35
2016-06-06T13:23:57.695Z,35
2016-06-06T13:25:04.963Z,35
2016-06-06T13:26:00.934Z,35
2016-06-06T13:26:57.141Z,35
2016-06-06T13:28:04.924Z,35
2016-06-06T13:29:01.302Z,35
2016-06-06T13:29:59.445Z,35
2016-06-06T13:30:55.604Z,35
2016-06-06T13:32:01.029Z,35
2016-06-06T13:33:04.703Z,35
2016-06-06T13:34:08.752Z,35
2016-06-06T13:35:00.880Z,35
2016-06-06T13:35:55.243Z,35
2016-06-06T13:36:58.918Z,35
2016-06-06T13:38:01.263Z,35
2016-06-06T13:39:00.969Z,35
2016-06-06T13:39:58.191Z,35
2016-06-06T13:40:58.209Z,35
2016-06-06T13:42:58.151Z,35
2016-06-06T13:43:57.843Z,35
2016-06-06T13:44:58.705Z,35
2016-06-06T13:45:55.317Z,35
2016-06-06T13:46:58.381Z,35
2016-06-06T13:47:57.557Z,35
2016-06-06T13:48:58.246Z,30
2016-06-06T13:49:58.936Z,30
2016-06-06T13:50:58.642Z,30
2016-06-06T13:51:58.567Z,30
2016-06-06T13:52:58.179Z,25
2016-06-06T13:53:57.900Z,25
2016-06-06T13:54:57.919Z,25
2016-06-06T13:55:55.562Z,25
2016-06-06T13:56:59.017Z,25
2016-06-06T13:57:58.333Z,20
2016-06-06T13:58:57.929Z,20
2016-06-06T13:59:57.760Z,20
2016-06-06T14:01:03.044Z,20
2016-06-06T14:01:56.031Z,20
2016-06-06T14:02:58.597Z,20
2016-06-06T14:03:58.177Z,20
2016-06-06T14:04:59.930Z,20
2016-06-06T14:06:02.542Z,20
2016-06-06T14:06:58.280Z,15
2016-06-06T14:07:58.672Z,15
2016-06-06T14:08:58.550Z,15
2016-06-06T14:09:58.099Z,15
2016-06-06T14:12:14.340Z,15
2016-06-06T14:12:59.171Z,15
2016-06-06T14:13:58.095Z,15
2016-06-06T14:15:14.613Z,15
2016-06-06T14:16:01.116Z,15
2016-06-06T14:16:55.572Z,15
2016-06-06T14:17:58.824Z,15
2016-06-06T14:18:58.795Z,15
2016-06-06T14:19:55.408Z,15
2016-06-06T14:20:57.879Z,15
2016-06-06T14:21:55.381Z,15
2016-06-06T14:22:58.541Z,15
2016-06-06T14:23:56.497Z,15
2016-06-06T14:24:56.031Z,15
2016-06-06T14:25:54.721Z,15
2016-06-06T14:26:55.505Z,15
2016-06-06T14:27:54.085Z,15
2016-06-06T14:28:59.886Z,15
2016-06-06T14:30:24.030Z,15
2016-06-06T14:30:55.390Z,15
2016-06-06T14:31:54.441Z,15
2016-06-06T14:32:54.255Z,10
2016-06-06T14:33:55.586Z,10
2016-06-06T14:34:54.213Z,10
2016-06-06T14:35:54.169Z,10
2016-06-06T14:36:54.657Z,10
2016-06-06T14:37:54.441Z,10
2016-06-06T14:38:54.255Z,10
2016-06-06T14:39:55.119Z,10
2016-06-06T14:40:54.511Z,10
2016-06-06T14:42:26.657Z,10
2016-06-06T14:42:55.079Z,10
2016-06-06T14:43:55.426Z,10
2016-06-06T14:45:03.772Z,10
2016-06-06T14:45:55.290Z,10
2016-06-06T14:46:54.059Z,10
2016-06-06T14:48:07.076Z,10
2016-06-06T14:48:54.690Z,10
2016-06-06T14:49:55.348Z,10
2016-06-06T14:50:57.866Z,10
2016-06-06T14:51:54.431Z,10
2016-06-06T14:52:54.231Z,10
2016-06-06T14:53:57.811Z,10
2016-06-06T14:54:54.127Z,10
2016-06-06T14:55:54.755Z,10
2016-06-06T14:56:58.679Z,15
2016-06-06T14:57:54.494Z,15
2016-06-06T14:58:54.154Z,15
2016-06-06T14:59:58.547Z,15
2016-06-06T15:00:54.081Z,15
2016-06-06T15:01:54.364Z,15
2016-06-06T15:02:56.383Z,15
2016-06-06T15:03:54.136Z,15
2016-06-06T15:04:54.466Z,15
2016-06-06T15:05:54.703Z,15
2016-06-06T15:06:55.019Z,15
2016-06-06T15:07:54.693Z,15
2016-06-06T15:08:54.712Z,15
2016-06-06T15:09:54.324Z,15
2016-06-06T15:10:54.170Z,15
2016-06-06T15:11:54.454Z,15
2016-06-06T15:12:57.738Z,15
2016-06-06T15:13:54.474Z,15
2016-06-06T15:14:54.634Z,15
2016-06-06T15:15:54.590Z,15
2016-06-06T15:16:53.717Z,15
2016-06-06T15:17:54.564Z,15
2016-06-06T15:18:54.020Z,15
2016-06-06T15:19:54.023Z,15
2016-06-06T15:20:54.604Z,15
2016-06-06T15:21:54.637Z,15
2016-06-06T15:22:54.437Z,15
2016-06-06T15:23:53.690Z,15
2016-06-06T15:24:54.646Z,15
2016-06-06T15:25:52.836Z,15
2016-06-06T15:26:54.416Z,20
2016-06-06T15:27:53.278Z,20
2016-06-06T15:28:52.703Z,20
2016-06-06T15:29:56.112Z,20
2016-06-06T15:30:54.693Z,20
2016-06-06T15:31:54.883Z,20
2016-06-06T15:32:53.183Z,20
2016-06-06T15:33:52.888Z,20
2016-06-06T15:34:52.907Z,20
2016-06-06T15:35:52.816Z,20
2016-06-06T15:36:52.897Z,25
2016-06-06T15:37:52.696Z,25
2016-06-06T15:38:53.027Z,25
2016-06-06T15:39:52.749Z,25
2016-06-06T15:40:52.766Z,25
2016-06-06T15:41:52.910Z,25
2016-06-06T15:42:54.302Z,25
2016-06-06T15:43:52.680Z,25
2016-06-06T15:44:54.355Z,25
2016-06-06T15:45:55.780Z,25
2016-06-06T15:46:52.939Z,25
2016-06-06T15:47:54.473Z,30
2016-06-06T15:48:53.038Z,30
2016-06-06T15:49:52.947Z,30
2016-06-06T15:50:53.091Z,30
2016-06-06T15:51:52.827Z,30
2016-06-06T15:52:52.549Z,30
2016-06-06T15:53:52.457Z,30
2016-06-06T15:54:52.554Z,30
2016-06-06T15:55:52.604Z,30
2016-06-06T15:57:07.137Z,30
2016-06-06T15:57:52.890Z,30
2016-06-06T15:58:52.534Z,30
2016-06-06T15:59:53.240Z,30
2016-06-06T16:00:53.195Z,30
2016-06-06T16:01:52.308Z,30
2016-06-06T16:02:52.607Z,30
2016-06-06T16:03:52.453Z,30
2016-06-06T16:04:52.675Z,30
2016-06-06T16:05:52.553Z,30
2016-06-06T16:06:52.289Z,30
2016-06-06T16:07:52.511Z,30
2016-06-06T16:08:52.608Z,30
2016-06-06T16:09:52.611Z,30
2016-06-06T16:10:52.207Z,30
2016-06-06T16:11:52.241Z,30
2016-06-06T16:12:52.447Z,30
2016-06-06T16:13:52.309Z,30
2016-06-06T16:14:55.530Z,30
2016-06-06T16:15:52.283Z,30
2016-06-06T16:16:52.394Z,30
2016-06-06T16:17:52.726Z,30
2016-06-06T16:18:52.338Z,30
2016-06-06T16:19:52.278Z,30
2016-06-06T16:20:52.359Z,30
2016-06-06T16:21:52.268Z,30
2016-06-06T16:22:52.161Z,30
2016-06-06T16:23:52.148Z,25
2016-06-06T16:24:55.120Z,25
2016-06-06T16:25:55.060Z,25
2016-06-06T16:26:52.437Z,25
2016-06-06T16:27:51.924Z,25
2016-06-06T16:28:52.099Z,25
2016-06-06T16:29:53.258Z,25
2016-06-06T16:30:52.245Z,25
2016-06-06T16:31:52.045Z,25
2016-06-06T16:32:52.203Z,25
2016-06-06T16:33:54.753Z,25
2016-06-06T16:34:51.881Z,25
2016-06-06T16:35:55.306Z,25
2016-06-06T16:36:51.964Z,25
2016-06-06T16:37:55.108Z,25
2016-06-06T16:38:52.798Z,25
2016-06-06T16:39:54.800Z,25
2016-06-06T16:40:58.194Z,25
2016-06-06T16:41:51.806Z,25
2016-06-06T16:42:55.048Z,30
2016-06-06T16:43:55.009Z,30
2016-06-06T16:44:52.234Z,30
2016-06-06T16:45:52.492Z,25
2016-06-06T16:46:52.047Z,25
2016-06-06T16:47:55.021Z,25
2016-06-06T16:48:52.166Z,25
2016-06-06T16:49:52.309Z,20
2016-06-06T16:50:52.408Z,20
2016-06-06T16:51:54.475Z,20
2016-06-06T16:52:52.729Z,20
2016-06-06T16:53:54.857Z,20
2016-06-06T16:54:54.923Z,20
2016-06-06T16:55:55.176Z,20
2016-06-06T16:56:52.477Z,20
2016-06-06T16:57:54.917Z,20
2016-06-06T16:58:52.154Z,20
2016-06-06T16:59:54.517Z,20
2016-06-06T17:00:52.051Z,25
2016-06-06T17:01:55.101Z,25
2016-06-06T17:02:53.417Z,20
2016-06-06T17:03:53.200Z,20
2016-06-06T17:04:51.859Z,20
2016-06-06T17:05:51.971Z,20
2016-06-06T17:06:52.193Z,20
2016-06-06T17:07:52.820Z,20
2016-06-06T17:08:52.667Z,20
2016-06-06T17:09:51.858Z,20
2016-06-06T17:10:51.828Z,20
2016-06-06T17:11:52.050Z,20
2016-06-06T17:12:51.881Z,20
2016-06-06T17:13:52.290Z,20
2016-06-06T17:14:53.261Z,20
2016-06-06T17:15:56.436Z,20
2016-06-06T17:16:51.891Z,20
2016-06-06T17:17:51.722Z,20
2016-06-06T17:18:52.147Z,20
2016-06-06T17:19:52.040Z,15
2016-06-06T17:20:52.105Z,15
2016-06-06T17:21:51.608Z,15
2016-06-06T17:22:51.877Z,15
2016-06-06T17:23:52.004Z,15
2016-06-06T17:24:51.820Z,15
2016-06-06T17:25:52.040Z,10
2016-06-06T17:26:52.043Z,10
2016-06-06T17:27:52.265Z,10
2016-06-06T17:28:51.767Z,10
2016-06-06T17:29:52.240Z,10
2016-06-06T17:30:51.476Z,10
2016-06-06T17:31:51.588Z,10
2016-06-06T17:32:55.248Z,10
2016-06-06T17:33:51.828Z,10
2016-06-06T17:34:51.861Z,10
2016-06-06T17:35:55.864Z,15
2016-06-06T17:36:55.305Z,15
2016-06-06T17:37:51.916Z,15
2016-06-06T17:38:52.483Z,15
2016-06-06T17:39:53.485Z,15
2016-06-06T17:40:51.565Z,15
2016-06-06T17:42:05.569Z,10
2016-06-06T17:42:51.555Z,10
2016-06-06T17:43:51.480Z,10
2016-06-06T17:44:53.513Z,10
2016-06-06T17:45:52.486Z,10
2016-06-06T17:46:51.472Z,10
2016-06-06T17:47:51.443Z,10
2016-06-06T17:48:51.619Z,10
2016-06-06T17:49:51.871Z,10
2016-06-06T17:50:51.842Z,10
2016-06-06T17:51:51.548Z,10
2016-06-06T17:52:53.301Z,10
2016-06-06T17:53:51.351Z,10
2016-06-06T17:54:51.806Z,10
2016-06-06T17:55:51.981Z,10
2016-06-06T17:56:51.702Z,10
2016-06-06T17:57:51.595Z,10
2016-06-06T17:58:51.145Z,10
2016-06-06T17:59:51.835Z,10
2016-06-06T18:00:51.323Z,10
2016-06-06T18:01:50.715Z,10
2016-06-06T18:02:51.922Z,10
2016-06-06T18:03:51.784Z,10
2016-06-06T18:04:54.473Z,10
2016-06-06T18:05:52.055Z,10
2016-06-06T18:06:55.011Z,10
2016-06-06T18:07:52.200Z,10
2016-06-06T18:08:55.438Z,10
2016-06-06T18:09:52.394Z,10
2016-06-06T18:10:54.083Z,10
2016-06-06T18:11:51.867Z,5
2016-06-06T18:12:56.042Z,5
2016-06-06T18:13:54.623Z,5
2016-06-06T18:14:52.469Z,5
2016-06-06T18:16:04.519Z,5
2016-06-06T18:16:54.975Z,5
2016-06-06T18:17:54.727Z,5
2016-06-06T18:18:52.105Z,5
2016-06-06T18:19:52.249Z,5
2016-06-06T18:20:55.283Z,5
2016-06-06T18:21:52.098Z,5
2016-06-06T18:22:52.444Z,5
2016-06-06T18:23:50.993Z,5
2016-06-06T18:24:55.263Z,5
2016-06-06T18:25:54.858Z,5
2016-06-06T18:26:52.314Z,5
2016-06-06T18:27:51.879Z,5
2016-06-06T18:28:51.117Z,5
2016-06-06T18:29:50.931Z,5
2016-06-06T18:30:54.732Z,5
2016-06-06T18:31:50.812Z,5
2016-06-06T18:32:54.861Z,5
2016-06-06T18:33:51.036Z,5
2016-06-06T18:34:51.117Z,5
2016-06-06T18:35:51.011Z,5
2016-06-06T18:36:50.778Z,5
2016-06-06T18:37:50.703Z,5
2016-06-06T18:38:51.097Z,5
2016-06-06T18:39:52.255Z,5
2016-06-06T18:40:54.274Z,5
2016-06-06T18:41:50.964Z,0
2016-06-06T18:42:50.810Z,0
2016-06-06T18:43:50.798Z,0
2016-06-06T18:44:54.972Z,0
2016-06-06T18:45:51.725Z,0
2016-06-06T18:46:54.180Z,0
2016-06-06T18:47:50.902Z,0
2016-06-06T18:48:51.092Z,0
2016-06-06T18:49:51.001Z,0
2016-06-06T18:50:54.566Z,0
2016-06-06T18:51:51.069Z,0
2016-06-06T18:52:51.244Z,0
2016-06-06T18:53:50.684Z,0
2016-06-06T18:54:50.904Z,0
2016-06-06T18:55:54.330Z,0
2016-06-06T18:56:54.270Z,0
2016-06-06T18:57:50.116Z,0
2016-06-06T18:58:50.713Z,0
2016-06-06T18:59:51.012Z,0
2016-06-06T19:00:50.920Z,0
2016-06-06T19:01:51.017Z,0
2016-06-06T19:02:54.223Z,0
2016-06-06T19:03:50.882Z,0
2016-06-06T19:04:50.713Z,0
2016-06-06T19:05:51.091Z,0
2016-06-06T19:06:50.875Z,0
2016-06-06T19:07:50.893Z,0
2016-06-06T19:08:58.302Z,0
2016-06-06T19:09:50.961Z,0
2016-06-06T19:10:54.808Z,0
2016-06-06T19:11:51.123Z,0
2016-06-06T19:12:50.969Z,0
2016-06-06T19:13:51.878Z,0
2016-06-06T19:14:50.943Z,0
2016-06-06T19:15:50.822Z,0
2016-06-06T19:16:51.996Z,0
2016-06-06T19:17:51.905Z,0
2016-06-06T19:18:50.860Z,0
2016-06-06T19:19:50.472Z,0
2016-06-06T19:21:50.666Z,0
2016-06-06T19:22:48.965Z,0
2016-06-06T19:23:50.108Z,0
2016-06-06T19:24:49.876Z,0
2016-06-06T19:25:50.316Z,0
2016-06-06T19:26:50.132Z,0
2016-06-06T19:27:49.790Z,0
2016-06-06T19:28:50.012Z,0
2016-06-06T19:29:49.609Z,0
2016-06-06T19:30:49.768Z,0
2016-06-06T19:31:49.457Z,0
2016-06-06T19:32:49.726Z,0
2016-06-06T19:33:49.588Z,0
2016-06-06T19:34:50.622Z,0
2016-06-06T19:35:50.875Z,0
2016-06-06T19:36:49.675Z,0
2016-06-06T19:37:49.834Z,0
2016-06-06T19:38:49.539Z,0
2016-06-06T19:39:49.542Z,0
2016-06-06T19:40:49.061Z,0
2016-06-06T19:41:49.266Z,0
2016-06-06T19:42:48.941Z,0
2016-06-06T19:43:49.084Z,0
2016-06-06T19:44:49.930Z,0
2016-06-06T19:45:49.199Z,0
2016-06-06T19:46:48.905Z,0
2016-06-06T19:47:49.141Z,0
2016-06-06T19:48:48.847Z,0
2016-06-06T19:49:48.787Z,0
2016-06-06T19:50:49.087Z,0
2016-06-06T19:51:49.105Z,0
2016-06-06T19:53:03.186Z,0
2016-06-06T19:53:48.845Z,0
2016-06-06T19:54:48.582Z,0
2016-06-06T19:55:48.741Z,0
2016-06-06T19:56:49.072Z,0
2016-06-06T19:57:48.699Z,0
2016-06-06T19:58:48.859Z,0
2016-06-06T19:59:48.657Z,0
2016-06-06T20:00:48.660Z,0
2016-06-06T20:01:48.742Z,0
2016-06-06T20:02:50.056Z,0
2016-06-06T20:03:48.950Z,0
2016-06-06T20:04:49.172Z,0
2016-06-06T20:05:50.611Z,0
2016-06-06T20:06:48.646Z,0
2016-06-06T20:07:49.867Z,0
2016-06-06T20:08:50.292Z,0
2016-06-06T20:09:49.747Z,0
2016-06-06T20:10:49.078Z,0
2016-06-06T20:11:49.159Z,0
2016-06-06T20:12:49.833Z,0
2016-06-06T20:13:50.914Z,0
2016-06-06T20:14:49.589Z,0
2016-06-06T20:15:49.732Z,0
2016-06-06T20:16:48.578Z,0
2016-06-06T20:17:50.363Z,0
2016-06-06T20:18:49.241Z,0
2016-06-06T20:19:49.305Z,0
2016-06-06T20:20:50.247Z,0
2016-06-06T20:21:48.514Z,0
2016-06-06T20:22:48.813Z,0
2016-06-06T20:23:48.660Z,0
2016-06-06T20:24:49.069Z,0
2016-06-06T20:25:48.587Z,0
2016-06-06T20:26:49.090Z,0
2016-06-06T20:27:48.546Z,0
2016-06-06T20:28:48.815Z,0
2016-06-06T20:29:48.457Z,0
2016-06-06T20:30:49.413Z,0
2016-06-06T20:31:48.354Z,0
2016-06-06T20:32:49.060Z,0
2016-06-06T20:33:47.985Z,0
2016-06-06T20:34:52.893Z,0
2016-06-06T20:35:50.051Z,0
2016-06-06T20:36:49.086Z,0
2016-06-06T20:37:49.370Z,0
2016-06-06T20:38:50.372Z,0
2016-06-06T20:39:52.578Z,0
2016-06-06T20:40:49.456Z,0
2016-06-06T20:41:48.975Z,0
2016-06-06T20:42:49.727Z,0
2016-06-06T20:43:54.401Z,0
2016-06-06T20:44:50.403Z,0
2016-06-06T20:45:49.453Z,0
2016-06-06T20:46:48.691Z,0
2016-06-06T20:47:51.194Z,0
2016-06-06T20:48:54.399Z,0
2016-06-06T20:49:53.714Z,0
2016-06-06T20:50:53.716Z,0
2016-06-06T20:51:51.860Z,0
2016-06-06T20:52:51.722Z,0
2016-06-06T20:54:04.663Z,0
2016-06-06T20:54:49.415Z,0
2016-06-06T20:55:50.933Z,0
2016-06-06T20:56:48.718Z,0
2016-06-06T20:57:51.018Z,0
2016-06-06T20:58:48.254Z,0
2016-06-06T20:59:50.804Z,0
2016-06-06T21:00:51.041Z,0
2016-06-06T21:01:51.216Z,0
2016-06-06T21:02:48.844Z,0
2016-06-06T21:03:50.736Z,0
2016-06-06T21:04:50.832Z,0
2016-06-06T21:05:49.196Z,0
2016-06-06T21:07:04.307Z,0
2016-06-06T21:08:01.215Z,0
2016-06-06T21:08:54.250Z,0
2016-06-06T21:09:50.893Z,0
2016-06-06T21:10:51.037Z,0
2016-06-06T21:11:50.758Z,0
2016-06-06T21:12:50.589Z,0
2016-06-06T21:13:48.748Z,0
2016-06-06T21:14:48.329Z,0
2016-06-06T21:15:48.144Z,0
2016-06-06T21:16:47.537Z,0
2016-06-06T21:17:47.961Z,0
2016-06-06T21:18:48.700Z,0
2016-06-06T21:19:50.872Z,0
2016-06-06T21:20:54.672Z,0
2016-06-06T21:21:47.722Z,0
2016-06-06T21:22:48.022Z,0
2016-06-06T21:23:48.196Z,0
2016-06-06T21:24:49.558Z,0
2016-06-06T21:25:48.030Z,0
2016-06-06T21:26:47.752Z,0
2016-06-06T21:27:47.473Z,0
2016-06-06T21:28:51.726Z,0
2016-06-06T21:29:47.494Z,0
2016-06-06T21:30:48.277Z,0
2016-06-06T21:31:47.530Z,0
2016-06-06T21:32:47.939Z,0
2016-06-06T21:33:48.660Z,0
2016-06-06T21:34:48.351Z,0
2016-06-06T21:35:47.432Z,0
2016-06-06T21:36:48.090Z,0
2016-06-06T21:37:48.296Z,0
2016-06-06T21:38:47.299Z,0
2016-06-06T21:39:48.896Z,0
2016-06-06T21:40:47.304Z,0
2016-06-06T21:41:47.917Z,0
2016-06-06T21:42:47.216Z,0
2016-06-06T21:43:48.125Z,0
2016-06-06T21:44:47.472Z,0
2016-06-06T21:45:51.005Z,0
2016-06-06T21:46:46.961Z,0
2016-06-06T21:47:47.198Z,0
2016-06-06T21:48:47.248Z,0
2016-06-06T21:49:47.688Z,0
2016-06-06T21:50:47.628Z,0
2016-06-06T21:51:47.428Z,0
2016-06-06T21:52:47.494Z,0
2016-06-06T21:53:48.589Z,0
2016-06-06T21:54:47.483Z,0
2016-06-06T21:55:48.001Z,0
2016-06-06T21:56:47.332Z,0
2016-06-06T21:57:47.554Z,0
2016-06-06T21:58:47.338Z,0
2016-06-06T21:59:47.434Z,0
2016-06-06T22:00:47.671Z,0
2016-06-06T22:01:47.393Z,0
2016-06-06T22:02:47.599Z,0
2016-06-06T22:03:47.148Z,0
2016-06-06T22:04:49.291Z,0
2016-06-06T22:05:47.528Z,0
2016-06-06T22:06:47.374Z,0
2016-06-06T22:07:47.471Z,0
2016-06-06T22:08:47.177Z,0
2016-06-06T22:09:46.505Z,0
2016-06-06T22:10:46.539Z,0
2016-06-06T22:11:47.529Z,0
2016-06-06T22:12:48.001Z,0
2016-06-06T22:13:46.673Z,0
2016-06-06T22:14:47.131Z,0
2016-06-06T22:15:47.053Z,0
2016-06-06T22:16:46.321Z,0
2016-06-06T22:17:46.776Z,0
2016-06-06T22:18:47.517Z,0
2016-06-06T22:19:46.876Z,0
2016-06-06T22:20:46.316Z,0
2016-06-06T22:21:47.022Z,0
2016-06-06T22:22:46.711Z,0
2016-06-06T22:23:46.199Z,0
2016-06-06T22:24:47.217Z,0
2016-06-06T22:25:47.675Z,0
2016-06-06T22:26:46.129Z,0
2016-06-06T22:27:46.241Z,0
2016-06-06T22:28:48.058Z,0
2016-06-06T22:29:46.105Z,0
2016-06-06T22:30:46.124Z,0
2016-06-06T22:31:46.346Z,0
2016-06-06T22:32:47.364Z,0
2016-06-06T22:33:46.194Z,0
2016-06-06T22:34:46.104Z,0
2016-06-06T22:35:46.825Z,0
2016-06-06T22:37:00.346Z,0
2016-06-06T22:37:46.268Z,0
2016-06-06T22:38:46.021Z,0
2016-06-06T22:39:46.773Z,0
2016-06-06T22:40:46.292Z,0
2016-06-06T22:41:46.123Z,0
2016-06-06T22:42:47.250Z,0
2016-06-06T22:43:47.221Z,0
2016-06-06T22:44:45.911Z,0
2016-06-06T22:45:46.570Z,0
2016-06-06T22:46:47.729Z,0
2016-06-06T22:47:48.201Z,0
2016-06-06T22:48:45.595Z,0
2016-06-06T22:49:46.191Z,0
2016-06-06T22:50:47.193Z,0
2016-06-06T22:51:46.211Z,0
2016-06-06T22:52:46.042Z,0
2016-06-06T22:53:48.014Z,0
2016-06-06T22:54:45.626Z,0
2016-06-06T22:55:45.863Z,0
2016-06-06T22:56:48.131Z,0
2016-06-06T22:57:46.040Z,0
2016-06-06T22:58:45.575Z,0
2016-06-06T22:59:45.577Z,0
2016-06-06T23:00:45.657Z,0
2016-06-06T23:01:45.848Z,0
2016-06-06T23:02:45.522Z,0
2016-06-06T23:03:45.494Z,0
2016-06-06T23:04:45.450Z,0
2016-06-06T23:05:45.812Z,0
2016-06-06T23:06:45.455Z,0
2016-06-06T23:07:45.786Z,0
2016-06-06T23:08:45.430Z,0
2016-06-06T23:09:45.713Z,0
2016-06-06T23:10:45.387Z,0
2016-06-06T23:11:45.328Z,0
2016-06-06T23:12:45.378Z,0
2016-06-06T23:13:45.599Z,0
2016-06-06T23:14:45.274Z,0
2016-06-06T23:15:45.323Z,0
2016-06-06T23:16:45.248Z,0
2016-06-06T23:17:45.312Z,0
2016-06-06T23:18:45.473Z,0
2016-06-06T23:19:45.490Z,0
2016-06-06T23:20:45.430Z,0
2016-06-06T23:21:45.230Z,0
2016-06-06T23:22:45.155Z,0
2016-06-06T23:23:45.126Z,0
2016-06-06T23:24:45.160Z,0
2016-06-06T23:25:45.366Z,0
2016-06-06T23:26:45.072Z,0
2016-06-06T23:27:45.121Z,0
2016-06-06T23:28:45.030Z,0
2016-06-06T23:29:45.063Z,0
2016-06-06T23:30:44.988Z,0
2016-06-06T23:31:45.397Z,0
2016-06-06T23:32:45.072Z,0
2016-06-06T23:33:44.949Z,0
2016-06-06T23:34:44.890Z,0
2016-06-06T23:35:45.236Z,0
2016-06-06T23:36:44.896Z,0
2016-06-06T23:37:45.163Z,0
2016-06-06T23:38:44.869Z,0
2016-06-06T23:39:44.935Z,0
2016-06-06T23:40:47.687Z,0
2016-06-06T23:41:44.877Z,0
2016-06-06T23:42:44.709Z,0
2016-06-06T23:43:45.195Z,0
2016-06-06T23:44:45.401Z,0
2016-06-06T23:45:44.717Z,0
2016-06-06T23:46:44.766Z,0
2016-06-06T23:47:45.081Z,0
2016-06-06T23:48:44.662Z,0
2016-06-06T23:49:44.961Z,0
2016-06-06T23:50:44.933Z,0
2016-06-06T23:51:45.233Z,0
2016-06-06T23:52:44.673Z,0
2016-06-06T23:53:44.567Z,0
2016-06-06T23:54:45.006Z,0
2016-06-06T23:55:45.306Z,0
2016-06-06T23:56:44.511Z,0
2016-06-06T23:57:44.702Z,0
2016-06-06T23:58:48.048Z,0
2016-06-06T23:59:45.911Z,0
